Time;durP1;ratioP1;P1;durP2;ratioP2;P2;SDS_P1;SDS_P2;PMS_P1;PMS_P2;Temp;Humidity;BMP_temperature;BMP_pressure;BME280_temperature;BME280_humidity;BME280_pressure;Samples;Min_cycle;Max_cycle;Signal;HPM_P1;HPM_P2
2022/05/04 00:00:40;;;;;;;6.57;4.75;;;;;;;11.12;100.00;100415.28;5589279;31;32783;-65
2022/05/04 00:03:42;;;;;;;7.03;5.07;;;;;;;11.04;100.00;100405.50;5590330;31;34163;-65
2022/05/04 00:06:45;;;;;;;7.43;5.12;;;;;;;10.96;100.00;100402.87;5590501;31;34851;-65
2022/05/04 00:09:47;;;;;;;6.82;4.95;;;;;;;10.95;100.00;100405.69;5589521;31;33040;-65
2022/05/04 00:12:50;;;;;;;7.78;4.90;;;;;;;10.87;100.00;100403.91;5590062;31;34668;-65
2022/05/04 00:15:53;;;;;;;7.47;4.90;;;;;;;10.84;100.00;100404.25;5590062;31;34238;-65
2022/05/04 00:18:56;;;;;;;7.82;4.82;;;;;;;10.84;100.00;100407.72;5589449;31;33392;-66
2022/05/04 00:21:59;;;;;;;10.07;5.47;;;;;;;10.84;100.00;100406.91;5590051;31;34514;-65
2022/05/04 00:25:02;;;;;;;6.85;4.85;;;;;;;10.82;100.00;100409.72;5590310;31;35424;-65
2022/05/04 00:28:06;;;;;;;8.00;5.12;;;;;;;10.81;100.00;100416.00;5590015;31;34938;-64
2022/05/04 00:31:08;;;;;;;7.47;4.78;;;;;;;10.78;100.00;100424.31;5588969;31;32664;-65
2022/05/04 00:34:11;;;;;;;9.73;5.18;;;;;;;10.74;100.00;100415.03;5589872;31;34196;-65
2022/05/04 00:37:14;;;;;;;6.70;4.57;;;;;;;10.84;100.00;100418.31;5589918;31;34312;-65
2022/05/04 00:40:17;;;;;;;7.62;4.95;;;;;;;10.79;100.00;100419.84;5590234;31;34276;-65
2022/05/04 00:43:23;;;;;;;6.05;4.65;;;;;;;10.73;100.00;100421.34;5589326;31;32736;-65
2022/05/04 00:46:26;;;;;;;7.05;4.87;;;;;;;10.73;100.00;100415.22;5588895;31;32750;-65
2022/05/04 00:49:29;;;;;;;8.18;5.00;;;;;;;10.67;100.00;100418.53;5589788;31;34860;-65
2022/05/04 00:52:37;;;;;;;7.05;5.30;;;;;;;10.61;100.00;100425.31;5589840;31;34926;-65
2022/05/04 00:55:40;;;;;;;8.95;5.70;;;;;;;10.56;100.00;100425.00;5589963;31;34847;-65
2022/05/04 00:58:55;;;;;;;6.18;4.95;;;;;;;10.50;100.00;100419.53;5589749;31;34540;-65
2022/05/04 01:01:58;;;;;;;5.90;4.57;;;;;;;10.45;100.00;100434.13;5590044;31;34192;-65
2022/05/04 01:05:02;;;;;;;7.37;5.18;;;;;;;10.40;100.00;100435.62;5589706;31;34317;-65
2022/05/04 01:08:05;;;;;;;8.02;5.37;;;;;;;10.33;100.00;100431.97;5589668;31;34361;-65
2022/05/04 01:11:07;;;;;;;8.77;5.45;;;;;;;10.37;100.00;100427.97;5589581;31;34946;-65
2022/05/04 01:14:12;;;;;;;7.82;5.70;;;;;;;10.66;100.00;100435.44;5589859;31;34325;-65
2022/05/04 01:17:15;;;;;;;7.82;5.30;;;;;;;10.69;100.00;100440.41;5589580;31;34703;-65
2022/05/04 01:20:19;;;;;;;7.62;4.80;;;;;;;10.61;100.00;100443.06;5589517;31;34275;-66
2022/05/04 01:23:22;;;;;;;7.10;5.50;;;;;;;10.49;100.00;100439.09;5576261;31;33369;-65
2022/05/04 01:26:25;;;;;;;7.82;5.28;;;;;;;10.41;100.00;100438.09;5588773;31;34209;-65
2022/05/04 01:29:28;;;;;;;8.32;4.95;;;;;;;10.39;100.00;100433.97;5589872;31;34266;-66
2022/05/04 01:32:32;;;;;;;8.57;4.78;;;;;;;10.31;100.00;100429.47;5589461;31;34127;-66
2022/05/04 01:35:35;;;;;;;7.00;5.28;;;;;;;10.25;100.00;100429.31;5589260;31;34341;-66
2022/05/04 01:38:37;;;;;;;6.22;4.75;;;;;;;10.22;100.00;100430.44;5589716;31;34168;-66
2022/05/04 01:45:03;;;;;;;7.32;5.47;;;;;;;10.16;100.00;100417.88;5589625;31;34190;-66
2022/05/04 01:48:07;;;;;;;7.47;5.28;;;;;;;10.11;100.00;100430.75;5589382;31;35598;-66
2022/05/04 01:51:09;;;;;;;7.35;5.15;;;;;;;10.06;100.00;100433.06;5589208;31;34240;-66
2022/05/04 01:54:13;;;;;;;6.60;5.18;;;;;;;10.01;100.00;100425.59;5589440;31;34878;-65
2022/05/04 01:57:15;;;;;;;8.98;5.00;;;;;;;10.11;100.00;100419.31;5589250;31;35415;-65
2022/05/04 02:00:19;;;;;;;6.75;5.30;;;;;;;10.22;100.00;100422.50;5589369;31;34985;-65
2022/05/04 02:03:22;;;;;;;7.93;5.32;;;;;;;10.16;100.00;100430.28;5589071;31;35480;-66
2022/05/04 02:06:25;;;;;;;6.90;5.22;;;;;;;10.27;100.00;100424.66;5589086;31;34108;-66
2022/05/04 02:09:28;;;;;;;6.65;4.97;;;;;;;10.15;100.00;100418.81;5589006;31;34291;-66
2022/05/04 02:12:31;;;;;;;6.37;4.95;;;;;;;10.16;100.00;100427.63;5588732;31;34954;-66
2022/05/04 02:15:34;;;;;;;7.10;5.22;;;;;;;10.07;100.00;100416.16;5589179;31;34138;-65
2022/05/04 02:18:37;;;;;;;7.60;5.07;;;;;;;10.00;100.00;100415.16;5589100;31;34204;-66
2022/05/04 02:21:40;;;;;;;6.78;5.22;;;;;;;10.03;100.00;100420.13;5588058;31;33517;-66
2022/05/04 02:24:43;;;;;;;7.47;5.28;;;;;;;10.04;100.00;100421.78;5588699;31;34300;-66
2022/05/04 02:27:45;;;;;;;9.40;5.45;;;;;;;9.95;100.00;100425.41;5589017;31;35012;-66
2022/05/04 02:30:48;;;;;;;7.30;5.20;;;;;;;9.84;100.00;100428.34;5589032;31;34479;-66
2022/05/04 02:33:51;;;;;;;6.50;5.55;;;;;;;9.82;100.00;100423.25;5588656;31;34852;-66
2022/05/04 02:40:22;;;;;;;7.78;5.70;;;;;;;10.04;100.00;100422.63;5576449;31;34155;-66
2022/05/04 02:43:26;;;;;;;8.70;5.55;;;;;;;10.14;100.00;100432.22;5590936;31;34342;-65
2022/05/04 02:46:30;;;;;;;7.15;5.18;;;;;;;10.13;100.00;100431.41;5590749;31;34799;-65
2022/05/04 02:49:33;;;;;;;6.60;5.22;;;;;;;10.17;100.00;100438.06;5589988;31;34003;-65
2022/05/04 02:52:36;;;;;;;8.52;5.87;;;;;;;10.09;100.00;100437.19;5590889;31;34583;-65
2022/05/04 02:55:38;;;;;;;7.10;5.10;;;;;;;9.97;100.00;100431.41;5590193;31;33969;-66
2022/05/04 02:58:42;;;;;;;8.65;5.45;;;;;;;10.01;100.00;100443.31;5590710;31;34833;-65
2022/05/04 03:05:12;;;;;;;6.50;4.70;;;;;;;9.86;100.00;100444.94;5590745;31;34256;-65
2022/05/04 03:08:14;;;;;;;6.00;5.03;;;;;;;9.76;100.00;100429.19;5590712;31;34218;-65
2022/05/04 03:14:39;;;;;;;6.07;4.75;;;;;;;9.67;100.00;100432.78;5590933;31;33822;-66
2022/05/04 03:17:41;;;;;;;7.37;5.18;;;;;;;9.58;100.00;100439.84;5590623;31;34490;-66
2022/05/04 03:20:44;;;;;;;6.70;4.85;;;;;;;9.46;100.00;100435.84;5590916;31;34568;-65
2022/05/04 03:23:47;;;;;;;6.62;5.43;;;;;;;9.45;100.00;100436.00;5590895;31;34280;-66
2022/05/04 03:26:50;;;;;;;9.65;5.28;;;;;;;9.28;100.00;100436.94;5590819;31;34967;-65
2022/05/04 03:29:53;;;;;;;7.57;4.93;;;;;;;9.25;100.00;100446.00;5590436;31;34371;-66
2022/05/04 03:32:56;;;;;;;8.02;5.03;;;;;;;9.31;100.00;100444.53;5590510;31;34828;-66
2022/05/04 03:35:59;;;;;;;6.80;4.93;;;;;;;9.34;100.00;100450.37;5590722;31;34133;-66
2022/05/04 03:39:03;;;;;;;7.00;5.45;;;;;;;9.31;100.00;100445.38;5590746;31;34168;-66
2022/05/04 03:42:07;;;;;;;5.70;4.82;;;;;;;9.30;100.00;100448.19;5590570;31;34817;-66
2022/05/04 03:45:09;;;;;;;7.97;4.90;;;;;;;9.28;100.00;100458.09;5590288;31;34912;-66
2022/05/04 03:48:15;;;;;;;6.57;5.20;;;;;;;9.21;100.00;100457.06;5589967;31;34321;-65
2022/05/04 03:51:19;;;;;;;6.80;5.25;;;;;;;9.21;100.00;100459.72;5590045;31;34224;-66
2022/05/04 03:54:22;;;;;;;5.85;4.90;;;;;;;9.32;100.00;100470.87;5590382;31;35031;-66
2022/05/04 03:57:25;;;;;;;5.75;4.62;;;;;;;9.47;100.00;100468.47;5590629;31;34293;-66
2022/05/04 04:00:28;;;;;;;6.82;4.57;;;;;;;9.65;100.00;100461.25;5590308;31;34318;-66
2022/05/04 04:03:31;;;;;;;5.60;4.40;;;;;;;9.79;100.00;100460.63;5589195;31;34426;-66
2022/05/04 04:06:34;;;;;;;7.40;4.20;;;;;;;9.79;100.00;100465.94;5590158;31;34200;-66
2022/05/04 04:09:37;;;;;;;5.55;3.83;;;;;;;9.79;100.00;100481.84;5589591;31;33526;-66
2022/05/04 04:12:40;;;;;;;6.20;4.37;;;;;;;9.81;100.00;100481.69;5589371;31;33561;-66
2022/05/04 04:15:43;;;;;;;5.72;4.30;;;;;;;9.81;100.00;100487.81;5590558;31;34530;-66
2022/05/04 04:18:46;;;;;;;7.62;4.62;;;;;;;9.78;100.00;100482.00;5589932;31;34221;-66
2022/05/04 04:21:53;;;;;;;7.45;4.60;;;;;;;9.84;100.00;100482.19;5590035;31;34825;-66
2022/05/04 04:24:55;;;;;;;5.85;4.65;;;;;;;9.84;100.00;100484.00;5588979;31;32808;-66
2022/05/04 04:27:58;;;;;;;6.62;5.05;;;;;;;9.83;100.00;100485.81;5589540;31;35609;-66
2022/05/04 04:31:02;;;;;;;5.78;4.03;;;;;;;9.80;100.00;100482.66;5590006;31;35473;-66
2022/05/04 04:34:07;;;;;;;6.22;4.68;;;;;;;9.78;100.00;100480.16;5590234;31;34816;-66
2022/05/04 04:37:14;;;;;;;6.10;4.57;;;;;;;9.82;100.00;100488.66;5589890;31;35588;-66
2022/05/04 04:40:17;;;;;;;7.28;4.55;;;;;;;9.93;100.00;100489.16;5590218;31;34950;-66
2022/05/04 04:43:20;;;;;;;10.65;4.53;;;;;;;10.09;100.00;100495.50;5589966;31;34086;-66
2022/05/04 04:46:23;;;;;;;6.22;4.68;;;;;;;10.19;100.00;100499.72;5589585;31;34252;-66
2022/05/04 04:49:26;;;;;;;7.25;4.47;;;;;;;10.15;100.00;100497.53;5589964;31;34928;-66
2022/05/04 04:52:29;;;;;;;7.05;4.60;;;;;;;10.10;100.00;100500.66;5589135;31;32821;-66
2022/05/04 04:55:31;;;;;;;6.22;4.62;;;;;;;10.06;100.00;100495.84;5589626;31;34118;-66
2022/05/04 04:58:34;;;;;;;6.43;4.57;;;;;;;10.13;100.00;100492.38;5589716;31;34193;-67
2022/05/04 05:01:36;;;;;;;6.85;4.53;;;;;;;10.19;100.00;100490.94;5588704;31;34238;-67
2022/05/04 05:04:39;;;;;;;6.47;4.37;;;;;;;10.35;100.00;100494.47;5589701;31;34198;-67
2022/05/04 05:07:42;;;;;;;5.80;4.78;;;;;;;10.44;100.00;100493.47;5589604;31;34241;-66
2022/05/04 05:10:45;;;;;;;13.05;7.82;;;;;;;10.59;100.00;100491.00;5588572;31;34473;-67
2022/05/04 05:17:09;;;;;;;9.77;5.80;;;;;;;10.88;100.00;100491.31;5588734;31;33581;-66
2022/05/04 05:20:13;;;;;;;9.18;5.60;;;;;;;11.07;100.00;100498.09;5589650;31;34170;-66
2022/05/04 05:23:16;;;;;;;5.35;4.70;;;;;;;11.35;100.00;100503.84;5589408;31;34172;-66
2022/05/04 05:26:19;;;;;;;7.00;5.10;;;;;;;11.56;100.00;100514.78;5589558;31;35165;-66
2022/05/04 05:29:22;;;;;;;9.07;5.10;;;;;;;11.84;100.00;100514.38;5589017;31;34535;-66
2022/05/04 05:32:25;;;;;;;6.43;4.93;;;;;;;11.82;100.00;100519.00;5588640;31;33568;-66
2022/05/04 05:35:28;;;;;;;7.87;4.60;;;;;;;12.00;100.00;100519.63;5587854;31;34273;-66
2022/05/04 05:38:30;;;;;;;14.52;5.37;;;;;;;12.34;98.52;100517.44;5589001;31;34127;-66
2022/05/04 05:41:38;;;;;;;7.72;4.65;;;;;;;12.39;100.00;100520.38;5588755;31;34818;-65
2022/05/04 05:44:41;;;;;;;7.28;4.55;;;;;;;12.45;99.63;100526.81;5588279;31;32647;-67
2022/05/04 05:47:44;;;;;;;6.43;4.62;;;;;;;13.01;96.11;100521.09;5588119;31;32602;-66
2022/05/04 05:50:47;;;;;;;7.22;4.97;;;;;;;13.43;91.48;100522.38;5588832;31;34153;-67
2022/05/04 05:53:50;;;;;;;5.18;3.92;;;;;;;13.35;91.36;100522.47;5587975;31;33423;-66
2022/05/04 05:56:53;;;;;;;4.93;3.65;;;;;;;13.81;88.51;100523.94;5588828;31;34339;-66
2022/05/04 05:59:56;;;;;;;6.37;4.50;;;;;;;13.99;88.21;100526.19;5587528;31;32707;-66
2022/05/04 06:02:59;;;;;;;6.93;4.32;;;;;;;14.19;86.14;100532.59;5588857;31;33839;-66
2022/05/04 06:06:02;;;;;;;6.70;4.70;;;;;;;14.35;85.33;100527.06;5588549;31;34157;-67
2022/05/04 06:09:05;;;;;;;7.93;4.50;;;;;;;14.50;83.37;100531.56;5589071;31;34375;-66
2022/05/04 06:12:09;;;;;;;6.30;4.30;;;;;;;14.28;85.27;100544.81;5588103;31;34985;-66
2022/05/04 06:15:12;;;;;;;9.10;3.95;;;;;;;14.17;85.29;100542.66;5587784;31;33167;-66
2022/05/04 06:18:15;;;;;;;7.10;3.97;;;;;;;14.33;84.01;100546.94;5588127;31;34199;-66
2022/05/04 06:21:18;;;;;;;5.45;4.12;;;;;;;14.42;82.19;100545.84;5587149;31;32733;-66
2022/05/04 06:24:21;;;;;;;9.13;4.97;;;;;;;14.76;80.57;100553.19;5587147;31;33667;-66
2022/05/04 06:27:23;;;;;;;9.25;5.05;;;;;;;14.93;78.90;100553.75;5588331;31;34196;-67
2022/05/04 06:34:12;;;;;;;9.82;6.50;;;;;;;15.27;78.31;100553.84;5586904;31;33024;-66
2022/05/04 06:37:15;;;;;;;9.70;6.55;;;;;;;15.33;79.93;100549.56;5587799;31;34465;-66
2022/05/04 06:40:20;;;;;;;8.88;6.55;;;;;;;15.34;80.45;100545.87;5587951;31;34871;-66
2022/05/04 06:43:23;;;;;;;9.15;7.12;;;;;;;15.37;80.05;100542.81;5587756;31;34321;-67
2022/05/04 06:46:26;;;;;;;10.50;7.60;;;;;;;15.65;77.20;100557.84;5588056;31;34851;-66
2022/05/04 06:49:29;;;;;;;10.95;7.43;;;;;;;15.51;79.82;100547.25;5587601;31;34768;-66
2022/05/04 06:52:32;;;;;;;11.70;7.37;;;;;;;15.51;80.86;100550.75;5587344;31;33273;-66
2022/05/04 06:55:35;;;;;;;12.32;8.10;;;;;;;15.83;78.51;100551.97;5588033;31;34806;-65
2022/05/04 06:58:38;;;;;;;11.02;7.45;;;;;;;15.65;78.79;100551.66;5587187;31;33621;-66
2022/05/04 07:01:41;;;;;;;12.68;7.72;;;;;;;16.22;74.97;100548.66;5586751;31;33309;-65
2022/05/04 07:04:44;;;;;;;12.80;7.35;;;;;;;16.51;73.80;100550.19;5586867;31;32832;-66
2022/05/04 07:07:48;;;;;;;9.65;6.75;;;;;;;16.50;74.66;100549.37;5587628;31;34920;-66
2022/05/04 07:10:51;;;;;;;10.73;6.35;;;;;;;17.43;69.90;100547.59;5586754;31;33700;-67
2022/05/04 07:13:54;;;;;;;10.18;5.35;;;;;;;18.12;69.12;100547.88;5587789;31;34961;-67
2022/05/04 07:16:56;;;;;;;8.52;4.72;;;;;;;18.98;64.18;100556.28;5587332;31;34420;-66
2022/05/04 07:20:00;;;;;;;9.98;5.32;;;;;;;19.06;64.44;100555.22;5587452;31;34618;-68
2022/05/04 07:23:02;;;;;;;7.62;4.85;;;;;;;19.12;64.17;100554.34;5587776;31;34117;-68
2022/05/04 07:26:06;;;;;;;6.10;4.20;;;;;;;18.40;66.94;100560.13;5589618;31;33813;-68
2022/05/04 07:29:08;;;;;;;7.07;4.20;;;;;;;18.82;63.95;100550.66;5589947;31;33674;-68
2022/05/04 07:32:16;;;;;;;6.97;3.95;;;;;;;18.78;63.87;100552.94;5589506;31;32985;-68
2022/05/04 07:35:19;;;;;;;8.07;4.10;;;;;;;18.73;63.73;100551.94;5588927;31;33270;-67
2022/05/04 07:38:22;;;;;;;5.90;3.50;;;;;;;18.62;64.11;100561.50;5589143;31;33309;-67
2022/05/04 07:44:47;;;;;;;4.50;3.40;;;;;;;18.95;61.41;100551.38;5590388;31;34130;-68
2022/05/04 07:47:49;;;;;;;6.30;4.05;;;;;;;19.12;60.11;100555.16;5590150;31;34507;-68
2022/05/04 07:50:52;;;;;;;4.53;3.03;;;;;;;19.56;58.45;100550.66;5589310;31;32854;-68
2022/05/04 07:53:55;;;;;;;6.45;3.33;;;;;;;19.75;58.79;100554.22;5590516;31;34295;-67
2022/05/04 07:56:57;;;;;;;6.05;3.83;;;;;;;19.89;56.40;100553.03;5589099;31;32919;-68
2022/05/04 08:06:43;;;;;;;6.12;3.58;;;;;;;21.22;52.79;100559.91;5589103;31;33547;-68
2022/05/04 08:09:46;;;;;;;5.55;2.90;;;;;;;21.15;52.14;100561.91;5590178;31;34265;-68
2022/05/04 08:12:48;;;;;;;4.12;2.97;;;;;;;23.12;46.99;100561.69;5589436;31;32584;-68
2022/05/04 08:15:51;;;;;;;4.22;2.83;;;;;;;22.82;45.78;100557.41;5590155;31;34153;-67
2022/05/04 08:18:54;;;;;;;8.15;2.78;;;;;;;22.06;47.52;100558.63;5576049;31;33330;-68
2022/05/04 08:21:57;;;;;;;3.00;2.45;;;;;;;22.83;45.65;100555.53;5588992;31;32747;-68
2022/05/04 08:24:59;;;;;;;4.47;2.80;;;;;;;23.47;44.48;100564.19;5588882;31;32694;-69
2022/05/04 08:28:02;;;;;;;4.40;2.92;;;;;;;24.79;40.90;100556.63;5589621;31;34154;-69
2022/05/04 08:31:05;;;;;;;3.28;2.75;;;;;;;24.18;41.54;100555.97;5588515;31;32800;-68
2022/05/04 08:34:10;;;;;;;2.87;2.22;;;;;;;24.74;39.94;100562.00;5576035;31;32581;-67
2022/05/04 08:37:13;;;;;;;3.22;2.50;;;;;;;27.00;37.02;100562.78;5588296;31;34313;-69
2022/05/04 08:40:16;;;;;;;4.45;2.42;;;;;;;25.76;38.38;100560.94;5589259;31;34654;-68
2022/05/04 08:43:21;;;;;;;3.92;2.15;;;;;;;24.32;40.58;100564.53;5589261;31;34833;-66
2022/05/04 08:46:25;;;;;;;6.32;2.87;;;;;;;27.25;35.64;100568.22;5589049;31;34388;-67
2022/05/04 08:49:30;;;;;;;5.55;2.05;;;;;;;28.32;32.84;100568.81;5588074;31;33891;-67
2022/05/04 08:52:34;;;;;;;3.15;2.20;;;;;;;27.75;33.19;100578.25;5588716;31;32619;-67
2022/05/04 08:55:40;;;;;;;5.07;2.37;;;;;;;24.91;38.39;100567.34;5589355;31;34244;-67
2022/05/04 08:58:45;;;;;;;3.35;2.00;;;;;;;24.55;39.79;100569.66;5588377;31;33926;-68
2022/05/04 09:01:48;;;;;;;6.45;2.30;;;;;;;27.45;33.67;100564.66;5588357;31;32822;-67
2022/05/04 09:04:51;;;;;;;2.97;2.10;;;;;;;27.33;33.20;100572.28;5589305;31;34288;-69
2022/05/04 09:07:55;;;;;;;3.40;2.10;;;;;;;27.17;32.62;100561.41;5589175;31;34814;-66
2022/05/04 09:10:58;;;;;;;4.75;1.98;;;;;;;26.69;35.03;100562.69;5587571;31;33559;-66
2022/05/04 09:14:06;;;;;;;2.33;1.87;;;;;;;27.41;33.30;100560.84;5588268;31;33572;-67
2022/05/04 09:17:10;;;;;;;3.22;1.90;;;;;;;28.41;31.80;100558.94;5588261;31;33205;-67
2022/05/04 09:23:34;;;;;;;4.18;1.75;;;;;;;27.02;33.86;100563.31;5589064;31;34836;-67
2022/05/04 09:26:44;;;;;;;2.87;1.48;;;;;;;27.79;30.79;100559.44;5588438;31;33075;-66
2022/05/04 09:29:59;;;;;;;2.70;1.23;;;;;;;28.55;29.43;100557.22;5588735;31;34162;-66
2022/05/04 09:33:02;;;;;;;2.80;1.45;;;;;;;27.91;30.27;100563.50;5575389;31;33728;-67
2022/05/04 09:36:05;;;;;;;2.50;1.40;;;;;;;26.21;32.03;100553.03;5588233;31;33291;-66
2022/05/04 09:45:57;;;;;;;2.35;1.60;;;;;;;27.50;29.47;100551.84;5588830;31;34653;-66
2022/05/04 09:49:09;;;;;;;2.00;1.10;;;;;;;25.56;31.92;100553.53;5588902;31;34287;-67
2022/05/04 09:52:14;;;;;;;3.85;1.35;;;;;;;24.93;33.01;100536.16;5589859;31;32943;-67
2022/05/04 09:55:19;;;;;;;2.10;1.33;;;;;;;24.30;35.15;100552.31;5588919;31;33357;-66
2022/05/04 09:58:25;;;;;;;2.67;1.65;;;;;;;23.61;35.98;100539.22;5589682;31;34210;-67
2022/05/04 10:01:28;;;;;;;2.50;1.50;;;;;;;23.63;37.18;100542.47;5588087;31;33790;-67
2022/05/04 10:04:33;;;;;;;4.62;1.37;;;;;;;23.29;37.15;100547.09;5588822;31;34147;-66
2022/05/04 10:07:44;;;;;;;6.37;1.40;;;;;;;23.85;36.26;100530.84;5589216;31;34809;-67
2022/05/04 10:10:48;;;;;;;3.33;1.73;;;;;;;23.38;36.77;100542.88;5588207;31;32824;-67
2022/05/04 10:13:53;;;;;;;3.00;1.48;;;;;;;23.11;37.72;100531.09;5588142;31;32731;-66
2022/05/04 10:17:18;;;;;;;2.85;1.60;;;;;;;23.79;36.32;100519.13;5588681;31;35443;-66
2022/05/04 10:20:22;;;;;;;1.87;1.58;;;;;;;25.53;34.12;100515.97;5587984;31;32942;-67
2022/05/04 10:23:28;;;;;;;1.80;1.30;;;;;;;27.38;29.49;100518.63;5587980;31;32707;-68
2022/05/04 10:26:36;;;;;;;2.00;1.40;;;;;;;28.28;28.49;100515.88;5588770;31;34138;-67
2022/05/04 10:33:11;;;;;;;2.75;1.33;;;;;;;27.94;29.14;100510.28;5587716;31;32682;-68
2022/05/04 10:36:28;;;;;;;1.62;1.30;;;;;;;30.00;26.86;100503.47;5587557;31;33546;-67
2022/05/04 10:39:30;;;;;;;2.92;1.48;;;;;;;30.65;26.71;100502.53;5588308;31;34123;-68
2022/05/04 10:42:55;;;;;;;3.97;1.40;;;;;;;28.59;28.44;100490.03;5587686;31;32594;-67
2022/05/04 10:46:04;;;;;;;2.65;1.50;;;;;;;29.82;26.74;100498.75;5586841;31;33101;-67
2022/05/04 10:49:13;;;;;;;7.85;1.65;;;;;;;29.91;26.17;100502.50;5586596;31;33769;-67
2022/05/04 10:52:17;;;;;;;2.42;1.50;;;;;;;28.78;28.29;100491.00;5587191;31;32802;-66
2022/05/04 10:55:21;;;;;;;2.08;1.37;;;;;;;29.75;27.73;100491.72;5575743;31;33414;-68
2022/05/04 10:58:31;;;;;;;2.08;1.65;;;;;;;29.30;28.09;100493.03;5587403;31;35417;-66
2022/05/04 11:01:37;;;;;;;1.45;1.17;;;;;;;29.65;27.07;100491.00;5590536;31;34987;-67
2022/05/04 11:04:40;;;;;;;2.97;1.80;;;;;;;29.21;28.20;100485.72;5590867;31;34771;-66
2022/05/04 11:07:46;;;;;;;3.28;1.40;;;;;;;27.45;29.87;100491.88;5590165;31;34628;-66
2022/05/04 11:10:52;;;;;;;1.98;1.30;;;;;;;27.45;30.41;100485.66;5589100;31;33198;-66
2022/05/04 11:13:55;;;;;;;2.37;1.60;;;;;;;29.02;26.65;100471.16;5589852;31;32735;-66
2022/05/04 11:16:58;;;;;;;2.58;1.50;;;;;;;29.86;25.74;100480.66;5589630;31;32726;-66
2022/05/04 11:20:01;;;;;;;3.47;1.30;;;;;;;29.57;25.91;100480.72;5589601;31;34154;-67
2022/05/04 11:23:06;;;;;;;5.10;1.20;;;;;;;29.21;25.45;100475.59;5589663;31;33015;-67
2022/05/04 11:26:33;;;;;;;1.77;1.30;;;;;;;29.73;25.69;100479.41;5589581;31;32680;-66
2022/05/04 11:29:39;;;;;;;2.97;1.17;;;;;;;28.61;25.95;100479.62;5589611;31;34931;-68
2022/05/04 11:32:43;;;;;;;2.92;1.33;;;;;;;29.03;27.38;100475.50;5576939;31;33040;-67
2022/05/04 11:35:55;;;;;;;2.05;1.33;;;;;;;29.77;25.84;100481.28;5590109;31;34921;-67
2022/05/04 11:38:57;;;;;;;3.70;1.60;;;;;;;29.29;26.38;100479.59;5589258;31;32995;-66
2022/05/04 11:42:01;;;;;;;2.05;1.30;;;;;;;28.56;26.99;100481.63;5589312;31;33731;-66
2022/05/04 11:45:05;;;;;;;5.43;1.65;;;;;;;26.17;30.34;100477.66;5589053;31;33451;-66
2022/05/04 11:48:08;;;;;;;2.28;1.65;;;;;;;25.73;31.60;100474.53;5590114;31;34922;-66
2022/05/04 11:51:18;;;;;;;4.00;1.67;;;;;;;25.27;32.99;100487.81;5589430;31;32692;-67
2022/05/04 11:54:22;;;;;;;4.62;1.42;;;;;;;25.00;35.32;100487.09;5590098;31;34128;-66
2022/05/04 11:57:25;;;;;;;1.67;1.30;;;;;;;26.49;33.23;100491.91;5589644;31;34945;-67
2022/05/04 12:00:27;;;;;;;2.03;1.40;;;;;;;27.33;31.97;100485.13;5589047;31;32947;-66
2022/05/04 12:03:33;;;;;;;2.65;1.62;;;;;;;28.86;32.37;100481.37;5589296;31;34185;-67
2022/05/04 12:06:38;;;;;;;2.40;1.40;;;;;;;28.65;29.86;100488.09;5589836;31;34177;-66
2022/05/04 12:09:41;;;;;;;2.10;1.30;;;;;;;32.17;25.00;100485.22;5589688;31;34609;-67
2022/05/04 12:12:43;;;;;;;1.52;1.42;;;;;;;34.71;22.65;100486.25;5588436;31;33099;-68
2022/05/04 12:15:47;;;;;;;1.75;1.20;;;;;;;33.51;23.40;100483.25;5589079;31;32631;-67
2022/05/04 12:18:51;;;;;;;2.35;1.27;;;;;;;35.79;20.91;100490.47;5589660;31;34243;-67
2022/05/04 12:21:54;;;;;;;1.23;1.08;;;;;;;34.08;22.16;100477.78;5589060;31;32893;-67
2022/05/04 12:24:57;;;;;;;1.98;1.30;;;;;;;33.67;22.92;100480.87;5589840;31;34914;-67
2022/05/04 12:28:02;;;;;;;1.73;1.23;;;;;;;33.61;22.44;100474.72;5589732;31;34347;-67
2022/05/04 12:34:27;;;;;;;3.25;1.48;;;;;;;30.57;27.32;100472.28;5589728;31;34263;-67
2022/05/04 12:37:32;;;;;;;3.10;1.80;;;;;;;28.38;29.39;100459.34;5589795;31;34257;-67
2022/05/04 12:40:35;;;;;;;2.45;1.40;;;;;;;30.28;27.95;100466.12;5589167;31;32825;-68
2022/05/04 12:43:38;;;;;;;3.33;1.67;;;;;;;32.90;24.58;100454.63;5589176;31;32716;-65
2022/05/04 12:46:50;;;;;;;2.47;1.50;;;;;;;32.05;25.03;100463.75;5588941;31;32614;-69
2022/05/04 12:49:54;;;;;;;2.55;1.40;;;;;;;30.67;26.77;100452.12;5589207;31;31904;-67
2022/05/04 12:52:58;;;;;;;2.97;1.35;;;;;;;33.29;23.34;100448.38;5589957;31;34591;-66
2022/05/04 12:59:22;;;;;;;3.90;1.70;;;;;;;36.51;19.19;100440.41;5589477;31;34813;-67
2022/05/04 13:02:25;;;;;;;3.40;1.90;;;;;;;34.09;21.54;100435.31;5588483;31;33464;-67
2022/05/04 13:05:28;;;;;;;3.80;1.77;;;;;;;33.80;21.85;100431.25;5575237;31;33115;-66
2022/05/04 13:08:31;;;;;;;1.92;1.60;;;;;;;31.74;23.59;100425.22;5588768;31;33523;-67
2022/05/04 13:11:34;;;;;;;3.17;1.80;;;;;;;31.41;24.00;100423.69;5589353;31;34909;-67
2022/05/04 13:14:38;;;;;;;2.72;1.95;;;;;;;31.78;23.38;100415.25;5589240;31;35374;-67
2022/05/04 13:17:41;;;;;;;4.87;1.87;;;;;;;29.34;27.21;100414.00;5589449;31;34287;-66
2022/05/04 13:20:45;;;;;;;2.10;1.58;;;;;;;27.47;30.74;100420.78;5589515;31;34801;-66
2022/05/04 13:23:49;;;;;;;3.28;1.80;;;;;;;25.96;30.44;100419.69;5588563;31;34334;-66
2022/05/04 13:26:52;;;;;;;3.65;1.50;;;;;;;25.34;31.31;100414.28;5575178;31;32785;-66
2022/05/04 13:29:54;;;;;;;4.05;1.80;;;;;;;25.28;30.76;100423.47;5588797;31;32565;-67
2022/05/04 13:32:57;;;;;;;3.33;1.52;;;;;;;26.08;30.09;100422.19;5588222;31;34460;-67
2022/05/04 13:36:01;;;;;;;3.58;1.92;;;;;;;25.93;31.23;100425.69;5587981;31;33092;-67
2022/05/04 13:39:03;;;;;;;3.00;1.83;;;;;;;25.25;31.75;100418.56;5588049;31;33895;-67
2022/05/04 13:42:07;;;;;;;2.12;1.70;;;;;;;25.46;32.16;100423.03;5588358;31;33171;-67
2022/05/04 13:45:10;;;;;;;4.60;2.00;;;;;;;27.81;28.83;100429.09;5588172;31;32566;-67
2022/05/04 13:48:13;;;;;;;2.78;1.70;;;;;;;31.21;24.82;100433.13;5588218;31;33143;-66
2022/05/04 13:54:37;;;;;;;2.35;1.55;;;;;;;35.05;20.68;100435.72;5588498;31;34339;-68
2022/05/04 13:57:40;;;;;;;5.72;1.70;;;;;;;38.01;17.21;100430.47;5588112;31;33650;-67
2022/05/04 14:00:43;;;;;;;3.87;1.80;;;;;;;36.00;18.55;100433.34;5587383;31;34252;-66
2022/05/04 14:03:48;;;;;;;3.42;1.60;;;;;;;36.94;17.81;100417.84;5588063;31;34844;-67
2022/05/04 14:06:51;;;;;;;2.70;1.20;;;;;;;35.27;18.65;100416.22;5587630;31;34302;-67
2022/05/04 14:09:54;;;;;;;2.78;1.30;;;;;;;32.84;20.11;100408.34;5588297;31;35009;-66
2022/05/04 14:13:00;;;;;;;1.83;1.02;;;;;;;30.93;22.48;100402.09;5587131;31;34003;-66
2022/05/04 14:16:03;;;;;;;1.17;1.08;;;;;;;27.93;25.18;100405.84;5586654;31;32834;-66
2022/05/04 14:19:06;;;;;;;2.25;1.42;;;;;;;26.92;27.19;100408.09;5586672;31;34665;-65
2022/05/04 14:22:09;;;;;;;2.12;1.05;;;;;;;26.00;30.72;100407.19;5587405;31;34934;-66
2022/05/04 14:25:12;;;;;;;2.05;1.50;;;;;;;26.36;30.39;100406.22;5586710;31;33857;-66
2022/05/04 14:28:19;;;;;;;3.28;1.17;;;;;;;27.50;28.79;100404.69;5587832;31;34642;-66
2022/05/04 14:31:22;;;;;;;2.53;1.35;;;;;;;26.23;30.73;100411.38;5587608;31;35524;-66
2022/05/04 14:34:25;;;;;;;2.22;1.20;;;;;;;25.02;32.87;100414.38;5589948;31;34921;-67
2022/05/04 14:37:29;;;;;;;2.05;1.17;;;;;;;23.71;34.35;100417.47;5588892;31;33621;-66
2022/05/04 14:40:32;;;;;;;3.37;1.10;;;;;;;23.52;35.39;100418.03;5589344;31;32993;-66
2022/05/04 14:43:34;;;;;;;3.00;1.60;;;;;;;23.59;35.58;100421.34;5590582;31;34236;-67
2022/05/04 14:46:38;;;;;;;2.10;1.30;;;;;;;23.34;35.58;100421.81;5589162;31;32563;-68
2022/05/04 14:49:43;;;;;;;2.15;1.33;;;;;;;22.76;36.31;100414.19;5589360;31;33105;-66
2022/05/04 14:52:46;;;;;;;1.55;1.17;;;;;;;22.77;36.35;100407.72;5589199;31;33933;-66
2022/05/04 14:55:49;;;;;;;4.60;1.40;;;;;;;22.79;36.35;100411.84;5590035;31;34309;-67
2022/05/04 14:58:51;;;;;;;2.10;1.35;;;;;;;23.31;35.98;100414.19;5589773;31;34543;-68
2022/05/04 15:01:54;;;;;;;3.33;1.50;;;;;;;24.46;34.17;100407.66;5589246;31;32813;-67
2022/05/04 15:05:03;;;;;;;2.28;1.50;;;;;;;25.47;31.53;100411.88;5588923;31;33167;-67